Time;durP1;ratioP1;P1;durP2;ratioP2;P2;SDS_P1;SDS_P2;PMS_P1;PMS_P2;Temp;Humidity;BMP_temperature;BMP_pressure;BME280_temperature;BME280_humidity;BME280_pressure;Samples;Min_cycle;Max_cycle;Signal;HPM_P1;HPM_P2
2022/09/15 00:01:02;;;;;;;5.82;2.22;;;20.20;99.90;;;;;;5054838;28;20206;-62
2022/09/15 00:03:29;;;;;;;3.80;2.10;;;20.10;99.90;;;;;;5055053;28;20283;-62
2022/09/15 00:05:57;;;;;;;5.10;2.10;;;20.10;99.90;;;;;;5056202;28;20212;-61
2022/09/15 00:08:25;;;;;;;4.68;1.63;;;20.10;99.90;;;;;;5055575;28;20234;-61
2022/09/15 00:10:53;;;;;;;3.72;2.13;;;20.10;99.90;;;;;;5055400;28;20620;-61
2022/09/15 00:13:21;;;;;;;3.88;2.20;;;20.00;99.90;;;;;;5055091;28;20281;-61
2022/09/15 00:15:48;;;;;;;3.03;1.98;;;20.10;99.90;;;;;;5055182;28;20206;-61
2022/09/15 00:18:14;;;;;;;4.90;2.13;;;20.10;99.90;;;;;;5054703;28;20202;-62
2022/09/15 00:20:42;;;;;;;4.50;2.10;;;20.10;99.90;;;;;;5054712;28;20251;-61
2022/09/15 00:23:11;;;;;;;4.55;2.80;;;20.10;99.90;;;;;;5054661;28;20291;-61
2022/09/15 00:25:43;;;;;;;5.03;2.33;;;20.00;99.90;;;;;;5054704;28;20284;-61
2022/09/15 00:28:09;;;;;;;5.07;2.30;;;20.10;99.90;;;;;;5054986;28;20225;-61
2022/09/15 00:30:40;;;;;;;3.97;2.10;;;20.00;99.90;;;;;;5054058;28;20669;-61
2022/09/15 00:33:07;;;;;;;6.30;1.90;;;20.10;99.90;;;;;;5054571;28;20288;-61
2022/09/15 00:35:37;;;;;;;3.50;2.30;;;20.00;99.90;;;;;;5054462;28;20209;-61
2022/09/15 00:38:03;;;;;;;5.63;1.98;;;20.00;99.90;;;;;;5054511;28;20248;-61
2022/09/15 00:40:32;;;;;;;4.65;2.40;;;20.00;99.90;;;;;;5054186;28;20288;-61
2022/09/15 00:42:58;;;;;;;4.57;2.40;;;19.90;99.90;;;;;;5054207;28;20316;-62
2022/09/15 00:45:26;;;;;;;2.78;2.10;;;19.90;99.90;;;;;;5054188;28;20271;-61
2022/09/15 00:47:52;;;;;;;5.25;2.17;;;19.90;99.90;;;;;;5054118;28;20657;-62
2022/09/15 00:50:21;;;;;;;5.68;2.42;;;19.90;99.90;;;;;;5053870;28;20217;-61
2022/09/15 00:52:52;;;;;;;5.65;2.40;;;20.00;99.90;;;;;;5054099;28;20264;-62
2022/09/15 00:55:22;;;;;;;4.85;2.33;;;19.90;99.90;;;;;;5054018;28;20205;-61
2022/09/15 00:57:55;;;;;;;5.30;2.38;;;19.90;99.90;;;;;;5053818;28;20586;-61
2022/09/15 01:00:26;;;;;;;4.05;2.42;;;19.90;99.90;;;;;;5053852;28;20652;-61
2022/09/15 01:02:53;;;;;;;3.22;2.45;;;19.90;99.90;;;;;;5053886;28;20605;-61
2022/09/15 01:05:23;;;;;;;3.97;2.10;;;19.90;99.90;;;;;;5053820;28;20205;-61
2022/09/15 01:07:55;;;;;;;5.53;2.17;;;19.90;99.90;;;;;;5053208;28;20671;-61
2022/09/15 01:10:26;;;;;;;3.10;2.25;;;20.00;99.90;;;;;;5053676;28;20275;-61
2022/09/15 01:12:56;;;;;;;4.00;2.40;;;19.90;99.90;;;;;;5053688;28;20234;-61
2022/09/15 01:15:29;;;;;;;4.20;2.42;;;20.00;99.90;;;;;;5053896;28;20296;-61
2022/09/15 01:18:11;;;;;;;4.63;2.22;;;20.00;99.90;;;;;;5054016;28;20308;-61
2022/09/15 01:21:03;;;;;;;2.72;2.20;;;20.10;99.90;;;;;;5053171;28;20588;-61
2022/09/15 01:24:01;;;;;;;4.85;2.25;;;20.20;99.90;;;;;;5053513;28;20229;-61
2022/09/15 01:26:53;;;;;;;5.05;2.03;;;20.20;99.90;;;;;;5053504;28;20213;-63
2022/09/15 01:29:49;;;;;;;3.78;2.30;;;20.30;99.90;;;;;;5053772;28;20233;-63
2022/09/15 01:35:14;;;;;;;4.18;2.30;;;20.20;99.90;;;;;;5053257;28;20680;-61
2022/09/15 01:37:46;;;;;;;2.92;1.98;;;20.10;99.90;;;;;;5053524;28;20263;-61
2022/09/15 01:40:15;;;;;;;3.58;2.15;;;20.10;99.90;;;;;;5053056;28;20213;-61
2022/09/15 01:42:44;;;;;;;3.67;2.00;;;19.90;99.90;;;;;;5053150;28;20225;-61
2022/09/15 01:45:17;;;;;;;4.60;2.15;;;19.90;99.90;;;;;;5053179;28;20209;-61
2022/09/15 01:47:47;;;;;;;3.38;1.90;;;19.80;99.90;;;;;;5052843;28;20244;-61
2022/09/15 01:50:17;;;;;;;4.32;1.88;;;19.70;99.90;;;;;;5052819;28;20205;-60
2022/09/15 01:52:48;;;;;;;2.75;1.90;;;19.60;99.90;;;;;;5053063;28;20233;-61
2022/09/15 01:55:19;;;;;;;4.63;2.10;;;19.70;99.90;;;;;;5052916;28;20209;-61
2022/09/15 01:57:46;;;;;;;6.28;1.75;;;19.60;99.90;;;;;;5052992;28;20327;-61
2022/09/15 02:00:15;;;;;;;4.78;1.75;;;19.60;99.90;;;;;;5052471;28;20217;-61
2022/09/15 02:02:48;;;;;;;4.03;1.85;;;19.70;99.90;;;;;;5052947;28;20229;-61
2022/09/15 02:05:20;;;;;;;6.05;1.70;;;19.70;99.90;;;;;;5052815;28;20201;-61
2022/09/15 02:07:54;;;;;;;4.15;2.08;;;19.80;99.90;;;;;;5052642;28;20300;-61
2022/09/15 02:10:29;;;;;;;2.92;1.60;;;19.80;99.90;;;;;;5052480;28;20546;-61
2022/09/15 02:13:06;;;;;;;5.50;1.60;;;19.80;99.90;;;;;;5052727;28;20577;-61
2022/09/15 02:15:42;;;;;;;2.20;1.60;;;19.80;99.90;;;;;;5052838;28;20247;-61
2022/09/15 02:18:14;;;;;;;4.35;1.92;;;19.90;99.90;;;;;;5052025;28;20267;-61
2022/09/15 02:20:48;;;;;;;3.58;1.58;;;20.00;99.90;;;;;;5052101;28;20294;-62
2022/09/15 02:23:20;;;;;;;2.90;1.70;;;20.00;99.90;;;;;;5052463;28;20222;-61
2022/09/15 02:25:50;;;;;;;4.30;1.45;;;20.00;99.90;;;;;;5052291;28;20209;-61
2022/09/15 02:28:20;;;;;;;2.47;1.65;;;20.10;99.90;;;;;;5052212;28;20221;-61
2022/09/15 02:30:50;;;;;;;3.58;1.60;;;20.20;99.90;;;;;;5052135;28;20206;-61
2022/09/15 02:33:23;;;;;;;3.53;2.47;;;20.20;99.90;;;;;;5052043;28;20325;-61
2022/09/15 02:35:52;;;;;;;2.40;1.50;;;20.30;99.90;;;;;;5052390;28;20300;-61
2022/09/15 02:38:18;;;;;;;4.10;1.80;;;20.30;99.90;;;;;;5052220;28;20205;-61
2022/09/15 02:40:46;;;;;;;3.97;1.90;;;20.30;99.90;;;;;;5052024;28;20202;-61
2022/09/15 02:43:14;;;;;;;4.90;2.15;;;20.30;99.90;;;;;;5052111;28;20237;-61
2022/09/15 02:45:41;;;;;;;2.95;1.80;;;20.30;99.90;;;;;;5052107;28;20210;-61
2022/09/15 02:48:10;;;;;;;5.63;1.80;;;20.30;99.90;;;;;;5051812;28;20289;-61
2022/09/15 02:50:37;;;;;;;4.88;1.90;;;20.20;99.90;;;;;;5051917;28;20206;-61
2022/09/15 02:53:04;;;;;;;2.35;1.35;;;20.20;99.90;;;;;;5051985;28;20221;-61
2022/09/15 02:55:31;;;;;;;3.35;2.10;;;20.20;99.90;;;;;;5052114;28;20205;-61
2022/09/15 02:57:58;;;;;;;7.28;4.93;;;20.20;99.90;;;;;;5051812;28;20208;-61
2022/09/15 03:00:27;;;;;;;7.18;2.17;;;20.20;99.90;;;;;;5051565;28;20212;-61
2022/09/15 03:02:54;;;;;;;4.07;1.90;;;20.10;99.90;;;;;;5051636;28;20225;-61
2022/09/15 03:05:25;;;;;;;5.35;2.00;;;20.10;99.90;;;;;;5051819;28;20245;-61
2022/09/15 03:07:52;;;;;;;4.93;1.70;;;20.10;99.90;;;;;;5052085;28;20651;-61
2022/09/15 03:10:19;;;;;;;2.88;1.85;;;20.10;99.90;;;;;;5051342;28;20279;-61
2022/09/15 03:12:48;;;;;;;4.57;2.10;;;20.10;99.90;;;;;;5051502;28;20622;-61
2022/09/15 03:15:17;;;;;;;2.60;1.38;;;20.20;99.90;;;;;;5051692;28;20212;-61
2022/09/15 03:17:46;;;;;;;4.05;2.08;;;20.20;99.90;;;;;;5052575;28;20292;-61
2022/09/15 03:20:15;;;;;;;2.80;1.33;;;20.20;99.90;;;;;;5052096;28;20292;-61
2022/09/15 03:22:43;;;;;;;2.10;1.45;;;20.20;99.90;;;;;;5052110;28;20229;-61
2022/09/15 03:25:10;;;;;;;3.65;1.63;;;20.20;99.90;;;;;;5051599;28;20630;-61
2022/09/15 03:27:37;;;;;;;2.17;1.42;;;20.20;99.90;;;;;;5051414;28;20205;-61
2022/09/15 03:30:05;;;;;;;3.13;1.80;;;20.30;99.90;;;;;;5052823;28;20225;-61
2022/09/15 03:32:32;;;;;;;2.10;1.30;;;20.20;99.90;;;;;;5055105;28;20333;-61
2022/09/15 03:34:59;;;;;;;3.58;1.50;;;20.20;99.90;;;;;;5055384;28;20208;-61
2022/09/15 03:37:26;;;;;;;4.07;3.10;;;20.20;99.90;;;;;;5055295;28;20673;-61
2022/09/15 03:39:54;;;;;;;2.47;1.27;;;20.20;99.90;;;;;;5055420;28;20259;-61
2022/09/15 03:42:21;;;;;;;1.83;1.25;;;20.20;99.90;;;;;;5054953;28;20209;-61
2022/09/15 03:44:48;;;;;;;2.72;1.50;;;20.20;99.90;;;;;;5055272;28;20673;-61
2022/09/15 03:47:14;;;;;;;3.58;1.60;;;20.10;99.90;;;;;;5055319;28;20202;-62
2022/09/15 03:49:41;;;;;;;3.17;1.60;;;20.20;99.90;;;;;;5055250;28;20229;-61
2022/09/15 03:52:08;;;;;;;8.15;7.03;;;20.20;99.90;;;;;;5054761;28;20213;-61
2022/09/15 03:54:35;;;;;;;1.83;1.45;;;20.20;99.90;;;;;;5055040;28;20340;-61
2022/09/15 03:57:03;;;;;;;3.63;1.70;;;20.20;99.90;;;;;;5055259;28;20213;-61
2022/09/15 03:59:30;;;;;;;3.30;1.52;;;20.30;99.90;;;;;;5055199;28;20201;-60
2022/09/15 04:01:57;;;;;;;5.57;4.25;;;20.30;99.90;;;;;;5054914;28;20251;-61
2022/09/15 04:04:23;;;;;;;2.75;1.30;;;20.30;99.90;;;;;;5055042;28;20283;-61
2022/09/15 04:06:50;;;;;;;2.78;1.38;;;20.30;99.90;;;;;;5055102;28;20572;-61
2022/09/15 04:09:17;;;;;;;3.03;1.67;;;20.30;99.90;;;;;;5054725;28;20771;-61
2022/09/15 04:11:43;;;;;;;2.33;1.38;;;20.30;99.90;;;;;;5054634;28;20215;-62
2022/09/15 04:14:11;;;;;;;2.70;1.55;;;20.20;99.90;;;;;;5054694;28;20241;-63
2022/09/15 04:16:38;;;;;;;2.92;1.17;;;20.20;99.90;;;;;;5054754;28;20212;-63
2022/09/15 04:19:05;;;;;;;4.00;1.25;;;20.20;99.90;;;;;;5054877;28;20460;-63
2022/09/15 04:21:31;;;;;;;1.67;1.17;;;20.20;99.90;;;;;;5054469;28;20216;-61
2022/09/15 04:23:58;;;;;;;3.10;1.30;;;20.20;99.90;;;;;;5054635;28;20237;-61
2022/09/15 04:26:30;;;;;;;4.70;1.25;;;20.20;99.90;;;;;;5054815;28;20263;-62
2022/09/15 04:28:57;;;;;;;2.38;1.27;;;20.30;99.90;;;;;;5054736;28;20248;-62
2022/09/15 04:31:25;;;;;;;2.20;1.33;;;20.30;99.90;;;;;;5054179;28;20719;-62
2022/09/15 04:33:53;;;;;;;3.85;1.65;;;20.30;99.90;;;;;;5054889;28;20285;-62
2022/09/15 04:36:21;;;;;;;3.65;1.45;;;20.20;99.90;;;;;;5054291;28;20208;-62
2022/09/15 04:38:49;;;;;;;2.85;1.30;;;20.40;99.90;;;;;;5054593;28;20201;-61
2022/09/15 04:41:16;;;;;;;3.03;1.90;;;20.40;99.90;;;;;;5053480;28;20205;-61
2022/09/15 04:43:43;;;;;;;3.53;1.60;;;20.50;99.90;;;;;;5054170;28;20230;-61
2022/09/15 04:46:11;;;;;;;2.30;1.02;;;20.50;99.90;;;;;;5054006;28;20259;-61
2022/09/15 04:48:39;;;;;;;3.28;1.20;;;20.50;99.90;;;;;;5054043;28;20212;-61
2022/09/15 04:51:07;;;;;;;1.70;0.93;;;20.50;99.90;;;;;;5053731;28;20673;-61
2022/09/15 04:53:36;;;;;;;1.88;1.10;;;20.50;99.90;;;;;;5054092;28;20229;-61
2022/09/15 04:56:03;;;;;;;2.60;1.20;;;20.50;99.90;;;;;;5054237;28;20292;-61
2022/09/15 04:58:30;;;;;;;2.40;1.40;;;20.50;99.90;;;;;;5053981;28;20342;-61
2022/09/15 05:00:57;;;;;;;1.80;1.00;;;20.50;99.90;;;;;;5053942;28;20596;-61
2022/09/15 05:03:24;;;;;;;1.40;1.08;;;20.50;99.90;;;;;;5053730;28;20229;-62
2022/09/15 05:05:52;;;;;;;2.85;1.25;;;20.50;99.90;;;;;;5054053;28;20209;-62
2022/09/15 05:08:18;;;;;;;4.15;1.23;;;20.50;99.90;;;;;;5053808;28;20292;-62
2022/09/15 05:10:45;;;;;;;5.10;1.20;;;20.50;99.90;;;;;;5053572;28;20228;-62
2022/09/15 05:13:12;;;;;;;1.95;1.15;;;20.50;99.90;;;;;;5053889;28;20237;-62
2022/09/15 05:15:39;;;;;;;2.08;1.33;;;20.50;99.90;;;;;;5053613;28;20220;-62
2022/09/15 05:18:06;;;;;;;2.42;1.00;;;20.40;99.90;;;;;;5053501;28;20209;-62
2022/09/15 05:20:33;;;;;;;2.75;1.55;;;20.40;99.90;;;;;;5053749;28;20206;-62
2022/09/15 05:23:01;;;;;;;1.63;1.40;;;20.40;99.90;;;;;;5053714;28;20240;-62
2022/09/15 05:25:28;;;;;;;2.13;1.40;;;20.40;99.90;;;;;;5053619;28;20210;-62
2022/09/15 05:27:54;;;;;;;3.10;1.17;;;20.40;99.90;;;;;;5053294;28;20523;-62
2022/09/15 05:30:21;;;;;;;2.95;1.17;;;20.50;99.90;;;;;;5053422;28;20252;-62
2022/09/15 05:32:48;;;;;;;3.60;1.50;;;20.40;99.90;;;;;;5053003;28;20244;-62
2022/09/15 05:35:14;;;;;;;2.60;1.15;;;20.40;99.90;;;;;;5053274;28;20620;-62
2022/09/15 05:37:41;;;;;;;1.77;1.17;;;20.50;99.90;;;;;;5053180;28;20625;-62
2022/09/15 05:40:10;;;;;;;3.20;1.40;;;20.50;99.90;;;;;;5053093;28;20618;-62
2022/09/15 05:42:36;;;;;;;4.57;1.30;;;20.50;99.90;;;;;;5052894;28;20240;-62
2022/09/15 05:45:04;;;;;;;3.10;1.40;;;20.40;99.90;;;;;;5052935;28;20201;-62
2022/09/15 05:47:30;;;;;;;4.28;1.80;;;20.40;99.90;;;;;;5053331;28;20213;-62
2022/09/15 05:49:57;;;;;;;3.33;1.17;;;20.50;99.90;;;;;;5053249;28;20644;-62
2022/09/15 05:52:24;;;;;;;3.47;1.10;;;20.50;99.90;;;;;;5052779;28;20232;-62
2022/09/15 05:54:51;;;;;;;3.08;1.23;;;20.50;99.90;;;;;;5052952;28;20255;-64
2022/09/15 05:57:19;;;;;;;2.13;0.93;;;20.40;99.90;;;;;;5052725;28;20689;-60
2022/09/15 05:59:45;;;;;;;2.63;1.27;;;20.50;99.90;;;;;;5052582;28;20208;-61
2022/09/15 06:02:12;;;;;;;1.77;1.52;;;20.50;99.90;;;;;;5052222;28;20212;-58
2022/09/15 06:04:39;;;;;;;3.05;1.10;;;20.50;99.90;;;;;;5052774;28;20248;-59
2022/09/15 06:07:06;;;;;;;3.33;1.90;;;20.50;99.90;;;;;;5052811;28;20543;-57
2022/09/15 06:09:33;;;;;;;7.63;2.65;;;20.60;99.90;;;;;;5052753;28;20762;-58
2022/09/15 06:12:00;;;;;;;2.35;1.30;;;20.60;99.90;;;;;;5052736;28;20210;-58
2022/09/15 06:14:28;;;;;;;6.55;1.52;;;20.60;99.90;;;;;;5052707;28;20237;-58
2022/09/15 06:16:55;;;;;;;5.75;1.80;;;20.50;99.90;;;;;;5053143;28;20210;-58
2022/09/15 06:19:21;;;;;;;5.20;1.85;;;20.60;99.90;;;;;;5052937;28;20198;-59
2022/09/15 06:21:48;;;;;;;5.85;2.05;;;20.60;99.90;;;;;;5052675;28;20251;-61
2022/09/15 06:24:15;;;;;;;3.00;1.85;;;20.60;99.90;;;;;;5052413;28;20225;-59
2022/09/15 06:26:41;;;;;;;5.65;1.60;;;20.70;99.90;;;;;;5052356;28;20206;-59
2022/09/15 06:29:12;;;;;;;4.50;1.88;;;20.70;99.90;;;;;;5052325;28;20205;-59
2022/09/15 06:31:40;;;;;;;2.55;1.40;;;20.70;99.90;;;;;;5051834;28;20205;-58
2022/09/15 06:34:08;;;;;;;2.08;1.10;;;20.80;99.90;;;;;;5052079;28;20236;-59
2022/09/15 06:36:37;;;;;;;2.40;1.30;;;20.80;99.90;;;;;;5052026;28;20216;-59
2022/09/15 06:39:04;;;;;;;2.20;1.40;;;20.80;99.90;;;;;;5052190;28;20270;-59
2022/09/15 06:41:31;;;;;;;2.92;1.50;;;20.80;99.90;;;;;;5051338;28;20228;-59
2022/09/15 06:43:58;;;;;;;3.60;1.60;;;20.80;99.90;;;;;;5051957;28;20234;-59
2022/09/15 06:46:27;;;;;;;5.50;2.00;;;20.80;99.90;;;;;;5051986;28;20215;-59
2022/09/15 06:48:55;;;;;;;6.78;1.80;;;20.70;99.90;;;;;;5051892;28;20585;-61
2022/09/15 06:51:24;;;;;;;4.85;2.05;;;20.70;99.90;;;;;;5051116;28;20229;-59
2022/09/15 06:53:53;;;;;;;5.20;1.80;;;20.50;99.90;;;;;;5051662;28;20713;-59
2022/09/15 06:56:21;;;;;;;5.32;1.85;;;20.30;99.90;;;;;;5052146;28;20689;-59
2022/09/15 06:58:48;;;;;;;3.92;1.52;;;20.20;99.90;;;;;;5051761;28;20228;-59
2022/09/15 07:01:20;;;;;;;2.97;1.45;;;20.10;99.90;;;;;;5051060;28;20201;-59
2022/09/15 07:03:47;;;;;;;3.47;1.70;;;20.10;99.90;;;;;;5051630;28;20229;-63
2022/09/15 07:06:15;;;;;;;3.28;1.63;;;20.10;99.90;;;;;;5051249;28;20633;-58
2022/09/15 07:08:42;;;;;;;3.35;1.70;;;20.10;99.90;;;;;;5051908;28;20214;-58
2022/09/15 07:11:10;;;;;;;3.85;1.83;;;20.20;99.90;;;;;;5051073;28;20237;-58
2022/09/15 07:13:37;;;;;;;3.65;1.98;;;20.20;99.90;;;;;;5051394;28;20233;-58
2022/09/15 07:16:06;;;;;;;4.68;1.88;;;20.20;99.90;;;;;;5051569;28;20214;-58
2022/09/15 07:18:33;;;;;;;3.70;1.90;;;20.20;99.90;;;;;;5051690;28;20205;-58
2022/09/15 07:21:02;;;;;;;3.97;1.95;;;20.20;99.90;;;;;;5051050;28;20209;-59
2022/09/15 07:23:30;;;;;;;5.68;1.60;;;20.20;99.90;;;;;;5051736;28;20240;-59
2022/09/15 07:26:08;;;;;;;3.88;1.75;;;20.10;99.90;;;;;;5051596;28;20255;-58
2022/09/15 07:28:35;;;;;;;6.30;1.75;;;20.10;99.90;;;;;;5051494;28;20315;-59
2022/09/15 07:31:02;;;;;;;5.03;1.70;;;20.20;99.90;;;;;;5050753;28;20283;-60
2022/09/15 07:33:29;;;;;;;3.03;1.02;;;20.20;99.90;;;;;;5051165;28;20233;-58
2022/09/15 07:35:55;;;;;;;2.47;1.10;;;20.20;99.90;;;;;;5051616;28;20202;-59
2022/09/15 07:38:22;;;;;;;1.27;0.98;;;20.30;99.90;;;;;;5051518;28;20205;-59
2022/09/15 07:40:51;;;;;;;1.33;1.10;;;20.50;99.90;;;;;;5050914;28;20205;-59
2022/09/15 07:43:17;;;;;;;3.97;1.15;;;20.70;99.90;;;;;;5051404;28;20225;-58
2022/09/15 07:45:44;;;;;;;2.35;1.27;;;21.00;99.90;;;;;;5052865;28;20379;-61
2022/09/15 07:48:11;;;;;;;3.15;0.95;;;21.30;99.90;;;;;;5052376;28;20202;-58
2022/09/15 07:50:37;;;;;;;1.70;0.85;;;21.50;99.90;;;;;;5052384;28;20225;-58
2022/09/15 07:53:04;;;;;;;6.65;1.35;;;21.70;99.90;;;;;;5051446;28;20225;-60
2022/09/15 07:55:31;;;;;;;4.10;0.85;;;21.80;99.90;;;;;;5051570;28;20205;-59
2022/09/15 07:58:00;;;;;;;1.40;0.82;;;22.00;99.90;;;;;;5051424;28;20296;-59
2022/09/15 08:00:26;;;;;;;1.83;0.95;;;22.10;99.90;;;;;;5051247;28;20209;-60
2022/09/15 08:02:53;;;;;;;3.75;1.10;;;22.10;99.90;;;;;;5050643;28;20233;-59
2022/09/15 08:05:20;;;;;;;4.20;1.00;;;22.30;99.90;;;;;;5051260;28;20209;-59
2022/09/15 08:07:47;;;;;;;1.58;0.80;;;22.30;99.90;;;;;;5051225;28;20210;-60
2022/09/15 08:10:13;;;;;;;3.53;0.93;;;22.50;99.90;;;;;;5050912;28;20229;-59
2022/09/15 08:12:40;;;;;;;1.73;0.85;;;22.50;99.90;;;;;;5050381;28;20234;-59
2022/09/15 08:15:09;;;;;;;1.40;0.82;;;22.50;99.90;;;;;;5050913;28;20673;-59
2022/09/15 08:17:36;;;;;;;4.32;1.17;;;22.40;99.90;;;;;;5053055;28;20672;-60
2022/09/15 08:20:03;;;;;;;2.60;0.90;;;22.30;99.90;;;;;;5054878;28;20256;-58
2022/09/15 08:22:30;;;;;;;2.90;0.90;;;22.20;99.90;;;;;;5054001;28;20225;-60
2022/09/15 08:24:56;;;;;;;2.97;0.98;;;22.10;99.90;;;;;;5054539;28;20309;-59
2022/09/15 08:27:23;;;;;;;1.63;1.02;;;22.10;99.90;;;;;;5054532;28;20201;-62
2022/09/15 08:29:49;;;;;;;2.33;1.00;;;22.10;99.90;;;;;;5054396;28;20209;-60
2022/09/15 08:32:18;;;;;;;2.83;1.50;;;22.00;99.90;;;;;;5054017;28;20201;-59
2022/09/15 08:34:45;;;;;;;4.50;1.10;;;21.90;99.90;;;;;;5054663;28;20243;-62
2022/09/15 08:37:12;;;;;;;1.73;0.90;;;21.80;99.90;;;;;;5054392;28;20271;-59
2022/09/15 08:39:38;;;;;;;1.05;0.75;;;21.80;99.90;;;;;;5054442;28;20205;-59
2022/09/15 08:42:06;;;;;;;2.33;1.00;;;21.80;99.90;;;;;;5053829;28;20279;-59
2022/09/15 08:44:40;;;;;;;1.33;0.85;;;21.80;99.90;;;;;;5054487;28;20274;-59
2022/09/15 08:47:12;;;;;;;3.97;1.20;;;21.70;99.90;;;;;;5054675;28;20214;-59
2022/09/15 08:49:44;;;;;;;2.85;0.75;;;21.60;99.90;;;;;;5054641;28;20213;-59
2022/09/15 08:52:17;;;;;;;2.67;1.05;;;21.50;99.90;;;;;;5053655;28;20209;-59
2022/09/15 08:54:44;;;;;;;2.17;0.85;;;21.50;99.90;;;;;;5054334;28;20662;-60
2022/09/15 08:57:16;;;;;;;1.70;0.85;;;21.50;99.90;;;;;;5054440;28;20266;-59
2022/09/15 08:59:43;;;;;;;1.63;0.82;;;21.50;99.90;;;;;;5054553;28;20205;-61
2022/09/15 09:02:32;;;;;;;1.80;0.80;;;21.40;99.90;;;;;;5053397;28;20206;-59
2022/09/15 09:05:09;;;;;;;2.45;1.08;;;21.50;99.90;;;;;;5053954;28;20259;-59
2022/09/15 09:07:56;;;;;;;1.23;0.98;;;21.60;99.90;;;;;;5054024;28;20209;-60
2022/09/15 09:10:31;;;;;;;2.05;1.05;;;21.60;99.90;;;;;;5053893;28;20221;-60
2022/09/15 09:13:09;;;;;;;2.72;1.35;;;21.50;99.90;;;;;;5053108;28;20660;-60
2022/09/15 09:15:48;;;;;;;1.02;0.70;;;21.50;99.90;;;;;;5053698;28;20209;-60
2022/09/15 09:18:47;;;;;;;2.22;1.05;;;21.50;99.90;;;;;;5053757;28;20206;-61
2022/09/15 09:21:22;;;;;;;3.20;1.23;;;21.60;99.90;;;;;;5028540;28;20581;-60
2022/09/15 09:23:54;;;;;;;5.00;1.85;;;21.60;99.90;;;;;;5053227;28;20236;-62
2022/09/15 09:26:21;;;;;;;3.72;1.63;;;21.70;99.90;;;;;;5053723;28;20613;-60
2022/09/15 09:28:54;;;;;;;4.07;1.70;;;21.60;99.90;;;;;;5053165;28;20213;-60
2022/09/15 09:31:24;;;;;;;2.33;1.58;;;21.60;99.90;;;;;;5052653;28;20225;-60
2022/09/15 09:33:55;;;;;;;2.65;1.33;;;21.50;99.90;;;;;;5053403;28;20225;-61
2022/09/15 09:36:24;;;;;;;2.78;1.38;;;21.50;99.90;;;;;;5053464;28;20209;-60
2022/09/15 09:38:51;;;;;;;4.95;1.30;;;21.50;99.90;;;;;;5053426;28;20259;-60
2022/09/15 09:41:21;;;;;;;2.60;1.40;;;21.50;99.90;;;;;;5052615;28;20198;-60
2022/09/15 09:43:49;;;;;;;2.92;1.10;;;21.40;99.90;;;;;;5052938;28;20734;-60
2022/09/15 09:46:17;;;;;;;3.33;1.00;;;21.30;99.90;;;;;;5053021;28;20216;-60
2022/09/15 09:48:49;;;;;;;2.63;0.65;;;21.10;99.90;;;;;;5053110;28;20623;-60
2022/09/15 09:51:32;;;;;;;3.65;0.57;;;20.90;99.90;;;;;;5052446;28;20649;-60
2022/09/15 09:54:19;;;;;;;2.10;0.43;;;20.70;99.90;;;;;;5052893;28;20225;-63
2022/09/15 09:56:46;;;;;;;3.03;0.60;;;20.70;99.90;;;;;;5052825;28;20202;-62
2022/09/15 09:59:35;;;;;;;2.70;0.43;;;20.60;99.90;;;;;;5052756;28;20209;-61
2022/09/15 10:02:12;;;;;;;1.75;0.90;;;20.50;99.90;;;;;;5026907;28;20443;-60
2022/09/15 10:04:40;;;;;;;3.10;0.70;;;20.40;99.90;;;;;;5018021;28;20276;-61
2022/09/15 10:07:09;;;;;;;1.38;0.55;;;20.30;99.90;;;;;;5031646;28;20206;-62
2022/09/15 10:09:36;;;;;;;2.00;0.80;;;20.00;99.90;;;;;;5031451;28;20262;-65
2022/09/15 10:12:05;;;;;;;5.07;0.75;;;19.90;99.90;;;;;;5030974;28;20267;-65
2022/09/15 10:14:36;;;;;;;0.77;0.45;;;19.70;99.90;;;;;;5030983;28;20281;-64
2022/09/15 10:17:06;;;;;;;5.28;1.15;;;19.50;99.90;;;;;;5031758;28;20210;-65
2022/09/15 10:19:35;;;;;;;3.78;0.77;;;19.20;99.90;;;;;;5031324;28;20550;-66
2022/09/15 10:22:04;;;;;;;5.93;1.08;;;19.00;99.90;;;;;;5030562;28;20203;-64
2022/09/15 10:24:38;;;;;;;5.07;0.90;;;18.90;99.90;;;;;;5030919;28;20242;-64
2022/09/15 10:27:27;;;;;;;1.17;0.95;;;18.80;99.90;;;;;;5031253;28;20213;-64
2022/09/15 10:29:54;;;;;;;3.60;1.10;;;18.80;99.90;;;;;;5031333;28;20605;-65
2022/09/15 10:32:26;;;;;;;4.03;2.05;;;18.80;99.90;;;;;;5030605;28;20230;-64
2022/09/15 10:35:06;;;;;;;2.35;1.40;;;18.80;99.90;;;;;;5031039;28;20206;-63
2022/09/15 10:37:37;;;;;;;2.15;1.60;;;18.80;99.90;;;;;;5031504;28;20293;-62
2022/09/15 10:40:20;;;;;;;1.75;1.30;;;18.70;99.90;;;;;;5030441;28;20209;-62
2022/09/15 10:42:51;;;;;;;1.45;1.35;;;18.60;99.90;;;;;;5013659;28;20229;-63
2022/09/15 10:45:25;;;;;;;2.80;2.28;;;18.60;99.90;;;;;;5030739;28;20214;-62
2022/09/15 10:48:06;;;;;;;3.75;1.50;;;18.70;99.90;;;;;;5032049;28;20301;-64
2022/09/15 10:50:44;;;;;;;2.38;1.45;;;18.80;99.90;;;;;;5031205;28;20233;-63
2022/09/15 10:53:19;;;;;;;2.78;1.48;;;18.70;99.90;;;;;;5030098;28;20289;-63
2022/09/15 10:55:58;;;;;;;3.20;1.55;;;18.60;99.90;;;;;;5031134;28;20642;-64
2022/09/15 10:58:37;;;;;;;1.40;1.30;;;18.50;99.90;;;;;;5031538;28;20210;-64
2022/09/15 11:01:21;;;;;;;1.13;1.05;;;18.50;99.90;;;;;;5031677;28;20205;-64
2022/09/15 11:04:21;;;;;;;1.90;1.70;;;18.60;99.90;;;;;;5031675;28;20238;-65
2022/09/15 11:06:53;;;;;;;2.42;1.10;;;18.60;99.90;;;;;;5031985;28;20210;-63
2022/09/15 11:09:24;;;;;;;1.58;1.10;;;18.30;99.90;;;;;;5031567;28;20252;-65
2022/09/15 11:12:11;;;;;;;4.75;1.52;;;18.00;99.90;;;;;;5029882;28;20253;-64
2022/09/15 11:14:51;;;;;;;2.05;1.10;;;17.80;99.90;;;;;;5029909;28;20213;-66
2022/09/15 11:17:33;;;;;;;1.35;0.98;;;17.60;99.90;;;;;;5031796;28;20608;-66
2022/09/15 11:20:14;;;;;;;1.85;0.80;;;17.40;99.90;;;;;;5049575;28;20681;-62
2022/09/15 11:22:45;;;;;;;4.05;2.60;;;17.10;99.90;;;;;;5049179;28;20810;-63
2022/09/15 11:25:16;;;;;;;5.22;2.97;;;17.10;99.90;;;;;;5050376;28;20275;-62
2022/09/15 11:27:49;;;;;;;1.50;1.10;;;17.10;99.90;;;;;;5050216;28;20216;-63
2022/09/15 11:30:18;;;;;;;3.72;1.08;;;17.20;99.90;;;;;;5050337;28;20255;-63
2022/09/15 11:32:51;;;;;;;3.33;1.10;;;17.20;99.90;;;;;;5049314;28;20229;-64
2022/09/15 11:35:38;;;;;;;4.20;1.30;;;17.50;99.90;;;;;;5049895;28;20282;-63
2022/09/15 11:38:17;;;;;;;1.75;1.40;;;17.50;99.90;;;;;;5050510;28;20202;-62
2022/09/15 11:40:50;;;;;;;1.60;1.20;;;17.70;99.90;;;;;;5048880;28;20300;-63
2022/09/15 11:43:24;;;;;;;1.95;1.20;;;17.90;99.90;;;;;;5048595;28;20229;-63
2022/09/15 11:45:54;;;;;;;1.70;1.33;;;18.00;99.90;;;;;;5049857;28;20236;-63
2022/09/15 11:48:27;;;;;;;1.83;1.25;;;18.20;99.90;;;;;;5050203;28;20496;-64
2022/09/15 11:50:58;;;;;;;10.93;2.03;;;18.40;99.90;;;;;;5051043;28;20217;-63
2022/09/15 11:53:30;;;;;;;2.83;1.60;;;18.40;99.90;;;;;;5053239;28;20312;-66
2022/09/15 11:56:07;;;;;;;2.05;1.30;;;18.40;99.90;;;;;;5053817;28;20651;-66
2022/09/15 11:58:50;;;;;;;3.55;1.80;;;18.40;99.90;;;;;;5053950;28;20664;-67
2022/09/15 12:01:21;;;;;;;3.35;1.70;;;18.40;99.90;;;;;;5052070;28;20208;-65
2022/09/15 12:03:55;;;;;;;1.20;1.08;;;18.40;99.90;;;;;;5051740;28;20284;-66
2022/09/15 12:06:30;;;;;;;3.25;2.58;;;18.50;99.90;;;;;;5053157;28;20220;-69
2022/09/15 12:08:59;;;;;;;3.97;1.70;;;18.60;99.90;;;;;;5054272;28;20212;-67
2022/09/15 12:11:29;;;;;;;3.03;1.40;;;18.90;99.90;;;;;;5053312;28;20228;-64
2022/09/15 12:13:58;;;;;;;4.07;2.13;;;19.20;99.90;;;;;;5052613;28;20251;-64
2022/09/15 12:16:27;;;;;;;1.83;1.35;;;19.10;99.90;;;;;;5053508;28;20591;-64
2022/09/15 12:18:57;;;;;;;3.30;1.30;;;19.40;99.90;;;;;;5052388;28;20206;-66
2022/09/15 12:21:34;;;;;;;2.08;1.42;;;19.40;99.90;;;;;;5053028;28;20202;-63
2022/09/15 12:24:09;;;;;;;1.30;1.17;;;19.20;99.90;;;;;;5053256;28;20252;-67
2022/09/15 12:26:37;;;;;;;2.92;1.83;;;19.20;99.90;;;;;;5053500;28;20209;-67
2022/09/15 12:29:30;;;;;;;3.60;1.80;;;19.40;99.90;;;;;;5053141;28;20213;-65
2022/09/15 12:32:27;;;;;;;2.15;1.67;;;19.50;99.90;;;;;;5052649;28;20237;-65
2022/09/15 12:35:03;;;;;;;4.03;1.80;;;19.70;99.90;;;;;;5051265;28;20210;-64
2022/09/15 12:37:36;;;;;;;10.55;8.38;;;20.00;99.90;;;;;;5053136;28;20213;-64
2022/09/15 12:40:05;;;;;;;4.60;2.10;;;20.20;99.90;;;;;;5051801;28;20251;-63
2022/09/15 12:42:34;;;;;;;2.78;2.05;;;20.40;99.90;;;;;;5051869;28;20594;-64
2022/09/15 12:45:05;;;;;;;3.75;1.95;;;20.40;99.90;;;;;;5053112;28;20258;-65
2022/09/15 12:47:34;;;;;;;4.18;2.10;;;20.30;99.90;;;;;;5053203;28;20206;-64
2022/09/15 12:50:23;;;;;;;4.50;2.00;;;20.20;99.90;;;;;;5052773;28;20210;-65
2022/09/15 12:52:52;;;;;;;4.22;2.33;;;20.40;99.90;;;;;;5052047;28;20472;-65
2022/09/15 12:55:22;;;;;;;3.67;1.98;;;20.40;99.90;;;;;;5052820;28;20217;-65
2022/09/15 12:57:55;;;;;;;3.40;2.20;;;20.30;99.90;;;;;;5052895;28;20701;-65
2022/09/15 13:00:33;;;;;;;3.25;2.20;;;20.50;99.90;;;;;;5053526;28;20217;-64
2022/09/15 13:03:01;;;;;;;4.88;2.38;;;20.70;99.90;;;;;;5051425;28;20228;-62
2022/09/15 13:05:50;;;;;;;3.67;2.50;;;20.60;99.90;;;;;;5052305;28;20733;-62
2022/09/15 13:08:51;;;;;;;5.03;2.30;;;20.30;99.90;;;;;;5052255;28;20213;-62